Airfield :
LOGIN :

Register | Disclaimer

   EN    FR    IT 

 










Legend :    VFR   Marginal VFR   IFR   Intensive IFR   Very Intensive IFR
Visi :
Ceiling :
>= 8 km
>= 3000ft
5 to 8 km
1000 to 3000 ft
1500m to 5 km
500 to 1000 ft
800 to 1500m
200 to 500 ft
< 800m
< 200 ft
Symbols :   Thunderstorms  Fog  Heavy snow  Heavy precipitations  Wind > 20 kt
SIGMETs :     Misc.  Thunderstorms  Icing  Turbulence  Mountain Waves  Volcanic Ashes







- Airport Elevation : 138 ft
- IATA code : RLG


ETNL - Rostock Laage

CURRENT METAR :
  • 211020Z 26009KT 9999 BKN027 21/14 Q1016 BLU

EXPIRED METARs :
  • 210920Z 26011KT 9999 SCT023 20/15 Q1016 BLU+
  • 210820Z 24011KT 9999 SCT014 20/16 Q1015 BLU+
  • 210804Z 26011KT 9999 SCT013 19/16 Q1015 BLU+
  • 210720Z 27010KT 9999 FEW006 BKN009 18/16 Q1014 GRN

TAF TAF ETNL
Valid from the 21 at 05:00 until the 21 at 17:00 UTC


210400Z 2105/2117 19006KT 9999 NSW SCT060 BKN100
TEMPO 2105/2108 20003KT 0500 FG BKN001
BECMG 2110/2112 24015G25KT 9999 NSW SCT050 BY ETGL
No reported NOTAMs for that airfield.



MET'MAP, your aeronautical weather chart ! - Copyright ORBIFLY December 2007 - Disclaimer

ORBIFLY MET'MAP TEAM :

Programming & Development : Alexandra Zaïnal
Concept & Development : Baudouin d'Aumeries
Co-Development & Prog : Marc-Olivier Méhu
Technical & hardware support : Manuel Goepfert

Contact : metmap@orbifly.com




SOURCES & CREDITS :

   NOAA